Time;durP1;ratioP1;P1;durP2;ratioP2;P2;SDS_P1;SDS_P2;PMS_P1;PMS_P2;Temp;Humidity;BMP_temperature;BMP_pressure;BME280_temperature;BME280_humidity;BME280_pressure;Samples;Min_cycle;Max_cycle;Signal;HPM_P1;HPM_P2
2021/10/02 00:34:22;;;;;;;7.80;5.45;;;13.90;83.10;;;;;;6199102;28;20426;-77
2021/10/02 00:37:35;;;;;;;9.43;4.65;;;13.90;83.50;;;;;;6198794;28;20429;-77
2021/10/02 00:47:19;;;;;;;8.98;5.90;;;14.00;82.50;;;;;;6198485;28;20442;-77
2021/10/02 00:50:21;;;;;;;7.43;6.32;;;14.00;83.00;;;;;;6198466;28;20429;-77
2021/10/02 00:53:24;;;;;;;7.63;5.70;;;14.00;83.30;;;;;;6198264;28;20783;-77
2021/10/02 00:56:25;;;;;;;11.20;6.63;;;14.10;83.50;;;;;;6198802;28;20708;-77
2021/10/02 00:59:31;;;;;;;10.20;6.50;;;14.10;83.70;;;;;;6197832;28;20496;-77
2021/10/02 01:02:42;;;;;;;8.73;6.20;;;14.10;83.30;;;;;;6198625;28;20429;-77
2021/10/02 01:06:05;;;;;;;9.47;6.03;;;14.20;83.40;;;;;;6198590;28;20419;-77
2021/10/02 01:09:17;;;;;;;7.40;6.65;;;14.20;82.90;;;;;;6197765;28;20426;-77
2021/10/02 01:12:28;;;;;;;8.55;5.70;;;14.30;82.70;;;;;;6198291;28;20521;-77
2021/10/02 01:15:42;;;;;;;6.78;5.32;;;14.30;82.40;;;;;;6198021;28;20457;-77
2021/10/02 01:18:50;;;;;;;7.60;5.57;;;14.40;81.90;;;;;;6197338;28;20569;-77
2021/10/02 01:21:58;;;;;;;8.10;4.53;;;14.40;81.90;;;;;;6197694;28;20422;-77
2021/10/02 01:25:11;;;;;;;7.90;4.93;;;14.50;81.60;;;;;;6197917;28;20437;-77
2021/10/02 01:28:18;;;;;;;10.50;6.38;;;14.40;81.60;;;;;;6197763;28;20437;-77
2021/10/02 01:31:23;;;;;;;6.25;5.07;;;14.40;82.20;;;;;;6197007;28;20898;-77
2021/10/02 01:34:30;;;;;;;8.52;5.85;;;14.40;82.10;;;;;;6197344;28;20843;-77
2021/10/02 01:37:46;;;;;;;7.60;4.85;;;14.50;81.80;;;;;;6196872;28;20422;-77
2021/10/02 01:47:35;;;;;;;6.68;4.97;;;14.60;80.80;;;;;;6196758;28;20419;-77
2021/10/02 01:50:39;;;;;;;5.60;4.35;;;14.60;80.40;;;;;;6196888;28;20517;-77
2021/10/02 01:53:44;;;;;;;6.35;4.47;;;14.60;80.60;;;;;;6199378;28;20449;-76
2021/10/02 01:56:49;;;;;;;7.25;4.38;;;14.60;80.00;;;;;;6200262;28;20875;-77
2021/10/02 01:59:54;;;;;;;11.85;4.82;;;14.60;80.30;;;;;;6197106;28;20434;-77
2021/10/02 02:02:58;;;;;;;9.82;4.43;;;14.60;79.90;;;;;;6196689;28;20422;-77
2021/10/02 02:06:01;;;;;;;7.10;4.18;;;14.50;80.20;;;;;;6196885;28;20454;-77
2021/10/02 02:09:04;;;;;;;5.75;4.70;;;14.60;79.80;;;;;;6196507;28;20938;-77
2021/10/02 02:12:07;;;;;;;7.43;4.25;;;14.60;79.80;;;;;;6196976;28;20590;-77
2021/10/02 02:15:13;;;;;;;6.57;3.90;;;14.60;79.60;;;;;;6196575;28;20414;-77
2021/10/02 02:18:17;;;;;;;5.50;3.70;;;14.60;79.50;;;;;;6196583;28;20418;-78
2021/10/02 02:21:20;;;;;;;6.53;5.10;;;14.60;79.60;;;;;;6196750;28;20438;-77
2021/10/02 02:24:22;;;;;;;5.10;4.60;;;14.60;79.70;;;;;;6196735;28;20434;-78
2021/10/02 02:27:25;;;;;;;6.25;4.00;;;14.60;79.60;;;;;;6196306;28;20501;-77
2021/10/02 02:30:28;;;;;;;7.95;4.80;;;14.50;79.70;;;;;;6197131;28;20419;-77
2021/10/02 02:33:30;;;;;;;4.95;3.88;;;14.50;80.00;;;;;;6196391;28;20442;-77
2021/10/02 02:36:32;;;;;;;7.90;4.63;;;14.50;79.60;;;;;;6196605;28;20994;-77
2021/10/02 02:39:34;;;;;;;7.80;4.13;;;14.50;79.60;;;;;;6196188;28;20422;-76
2021/10/02 02:42:36;;;;;;;7.93;3.90;;;14.40;79.90;;;;;;6196334;28;20419;-77
2021/10/02 02:45:44;;;;;;;7.13;3.85;;;14.40;79.70;;;;;;6196058;28;20501;-77
2021/10/02 02:48:52;;;;;;;5.25;3.88;;;14.40;79.30;;;;;;6200608;28;20482;-76
2021/10/02 02:51:59;;;;;;;4.68;4.15;;;14.40;79.00;;;;;;6201447;28;20461;-77
2021/10/02 02:55:06;;;;;;;4.97;3.78;;;14.40;78.30;;;;;;6201433;28;20426;-77
2021/10/02 02:58:08;;;;;;;5.50;3.83;;;14.40;79.00;;;;;;6200971;28;20433;-77
2021/10/02 03:01:14;;;;;;;8.40;3.92;;;14.40;79.50;;;;;;6200957;28;20422;-77
2021/10/02 03:04:19;;;;;;;5.63;4.03;;;14.50;80.40;;;;;;6201219;28;20935;-77
2021/10/02 03:07:22;;;;;;;7.18;3.70;;;14.50;80.10;;;;;;6200706;28;20496;-77
2021/10/02 03:10:25;;;;;;;5.60;3.20;;;14.50;79.90;;;;;;6200736;28;20449;-76
2021/10/02 03:13:30;;;;;;;4.65;3.50;;;14.50;79.90;;;;;;6200540;28;21009;-77
2021/10/02 03:16:34;;;;;;;4.05;3.65;;;14.50;80.80;;;;;;6200850;28;20596;-76
2021/10/02 03:19:39;;;;;;;5.57;3.92;;;14.50;80.00;;;;;;6200267;28;20426;-77
2021/10/02 03:22:42;;;;;;;4.53;4.03;;;14.50;80.30;;;;;;6200522;28;20560;-76
2021/10/02 03:25:46;;;;;;;4.97;3.67;;;14.40;80.50;;;;;;6200435;28;21051;-77
2021/10/02 03:28:49;;;;;;;4.10;3.70;;;14.40;80.40;;;;;;6199970;28;20433;-77
2021/10/02 03:31:52;;;;;;;5.20;3.45;;;14.40;81.00;;;;;;6200486;28;20434;-76
2021/10/02 03:34:55;;;;;;;6.17;3.87;;;14.30;81.20;;;;;;6200330;28;20457;-76
2021/10/02 03:37:57;;;;;;;6.60;3.58;;;14.30;81.30;;;;;;6200192;28;20418;-76
2021/10/02 03:41:00;;;;;;;7.53;4.47;;;14.30;81.40;;;;;;6199487;28;20902;-76
2021/10/02 03:44:02;;;;;;;4.70;3.50;;;14.30;81.20;;;;;;6200352;28;20445;-77
2021/10/02 03:47:05;;;;;;;5.65;3.95;;;14.30;80.90;;;;;;6200139;28;20422;-76
2021/10/02 03:50:11;;;;;;;4.43;3.33;;;14.30;80.20;;;;;;6199489;28;20422;-77
2021/10/02 03:53:12;;;;;;;4.63;2.83;;;14.40;78.90;;;;;;6200135;28;20438;-77
2021/10/02 03:56:14;;;;;;;6.00;3.53;;;14.40;78.90;;;;;;6199933;28;20915;-77
2021/10/02 03:59:16;;;;;;;6.38;3.50;;;14.50;79.70;;;;;;6198365;28;20415;-77
2021/10/02 04:02:19;;;;;;;6.82;3.63;;;14.60;79.80;;;;;;6199532;28;20501;-77
2021/10/02 04:05:21;;;;;;;5.32;3.15;;;14.50;79.60;;;;;;6199419;28;20450;-77
2021/10/02 04:08:23;;;;;;;4.90;3.60;;;14.50;79.80;;;;;;6200080;28;20434;-77
2021/10/02 04:11:26;;;;;;;4.85;3.00;;;14.50;80.00;;;;;;6198969;28;21024;-77
2021/10/02 04:14:28;;;;;;;5.60;3.78;;;14.50;79.40;;;;;;6199460;28;20919;-77
2021/10/02 04:17:31;;;;;;;7.82;4.00;;;14.50;79.60;;;;;;6199104;28;20418;-77
2021/10/02 04:20:33;;;;;;;4.65;3.15;;;14.40;80.20;;;;;;6199738;28;20430;-77
2021/10/02 04:23:34;;;;;;;5.13;3.25;;;14.40;80.00;;;;;;6199215;28;20426;-76
2021/10/02 04:26:36;;;;;;;6.28;3.15;;;14.30;79.80;;;;;;6199765;28;20427;-76
2021/10/02 04:29:39;;;;;;;6.60;3.43;;;14.20;80.20;;;;;;6198691;28;20502;-76
2021/10/02 04:32:42;;;;;;;7.93;4.57;;;14.10;80.40;;;;;;6199605;28;20477;-76
2021/10/02 04:35:44;;;;;;;8.05;4.13;;;14.10;80.80;;;;;;6198815;28;20505;-76
2021/10/02 04:38:46;;;;;;;4.85;3.30;;;14.10;81.10;;;;;;6198378;28;20450;-76
2021/10/02 04:41:47;;;;;;;4.00;3.20;;;14.00;80.90;;;;;;6199166;28;20493;-77
2021/10/02 04:44:49;;;;;;;5.65;3.40;;;14.00;81.40;;;;;;6198408;28;20535;-76
2021/10/02 04:47:52;;;;;;;7.40;4.50;;;14.00;80.80;;;;;;6199109;28;20452;-76
2021/10/02 04:50:54;;;;;;;5.93;3.85;;;14.00;81.20;;;;;;6197960;28;20569;-76
2021/10/02 04:53:56;;;;;;;4.03;3.65;;;14.00;81.40;;;;;;6198457;28;20496;-77
2021/10/02 04:56:58;;;;;;;4.83;3.13;;;13.90;81.40;;;;;;6198158;28;20994;-76
2021/10/02 05:00:00;;;;;;;5.32;4.05;;;13.90;81.40;;;;;;6199072;28;20493;-76
2021/10/02 05:03:03;;;;;;;5.47;3.60;;;13.80;81.10;;;;;;6198482;28;20497;-77
2021/10/02 05:06:06;;;;;;;6.23;3.97;;;13.70;81.20;;;;;;6198437;28;20446;-76
2021/10/02 05:09:07;;;;;;;5.78;3.90;;;13.70;81.10;;;;;;6197700;28;20425;-77
2021/10/02 05:12:10;;;;;;;6.17;3.83;;;13.60;81.30;;;;;;6198319;28;20469;-76
2021/10/02 05:15:12;;;;;;;5.75;3.85;;;13.50;81.00;;;;;;6197885;28;20422;-75
2021/10/02 05:18:15;;;;;;;5.65;3.70;;;13.40;81.20;;;;;;6198119;28;20505;-76
2021/10/02 05:21:17;;;;;;;5.57;3.88;;;13.30;81.30;;;;;;6198365;28;20438;-77
2021/10/02 05:24:18;;;;;;;3.85;3.00;;;13.30;81.30;;;;;;6199024;28;20589;-77
2021/10/02 05:27:20;;;;;;;6.28;3.25;;;13.30;81.40;;;;;;6200504;28;20516;-76
2021/10/02 05:30:22;;;;;;;4.72;3.45;;;13.30;81.00;;;;;;6202602;28;20429;-76
2021/10/02 05:33:26;;;;;;;4.78;3.60;;;13.30;81.30;;;;;;6198852;28;20556;-77
2021/10/02 05:36:27;;;;;;;4.63;2.88;;;13.30;81.10;;;;;;6198106;28;20532;-77
2021/10/02 05:39:29;;;;;;;4.55;3.83;;;13.20;81.30;;;;;;6196960;28;20914;-77
2021/10/02 05:42:31;;;;;;;5.28;3.65;;;13.00;81.20;;;;;;6197265;28;20411;-76
2021/10/02 05:45:33;;;;;;;5.75;3.88;;;13.10;81.20;;;;;;6197392;28;20918;-77
2021/10/02 05:48:36;;;;;;;5.38;3.55;;;13.10;81.40;;;;;;6197307;28;20517;-77
2021/10/02 05:51:38;;;;;;;4.68;3.25;;;13.10;81.50;;;;;;6197187;28;20963;-77
2021/10/02 05:54:40;;;;;;;5.72;3.33;;;13.10;81.40;;;;;;6197104;28;20505;-77
2021/10/02 05:57:41;;;;;;;10.27;4.57;;;13.10;81.30;;;;;;6196988;28;20426;-77
2021/10/02 06:00:43;;;;;;;4.23;2.73;;;13.10;82.00;;;;;;6197131;28;20456;-76
2021/10/02 06:03:47;;;;;;;4.68;3.53;;;13.10;81.20;;;;;;6196939;28;20565;-76
2021/10/02 06:06:48;;;;;;;4.22;2.97;;;13.10;80.90;;;;;;6196504;28;21030;-76
2021/10/02 06:09:51;;;;;;;6.95;3.75;;;13.10;81.30;;;;;;6196445;28;21113;-77
2021/10/02 06:12:54;;;;;;;9.98;5.22;;;13.00;82.00;;;;;;6196906;28;20576;-76
2021/10/02 06:15:56;;;;;;;6.97;3.45;;;13.10;81.50;;;;;;6197181;28;20434;-76
2021/10/02 06:18:59;;;;;;;4.00;3.40;;;13.20;81.50;;;;;;6196980;28;20499;-77
2021/10/02 06:22:01;;;;;;;7.80;3.50;;;13.30;81.40;;;;;;6195913;28;20513;-77
2021/10/02 06:25:04;;;;;;;10.68;3.83;;;13.30;81.10;;;;;;6196782;28;20521;-77
2021/10/02 06:28:06;;;;;;;5.30;3.63;;;13.40;81.60;;;;;;6220361;23;20445;-79
2021/10/02 06:31:08;;;;;;;6.65;3.88;;;13.50;80.90;;;;;;6198644;28;20513;-80
2021/10/02 06:34:12;;;;;;;6.47;3.88;;;13.60;80.80;;;;;;6198198;28;20900;-79
2021/10/02 06:37:14;;;;;;;4.30;3.90;;;13.70;80.90;;;;;;6197695;28;20414;-79
2021/10/02 06:40:16;;;;;;;5.30;4.10;;;13.80;80.90;;;;;;6198206;28;20434;-79
2021/10/02 06:43:18;;;;;;;7.38;3.90;;;13.90;80.30;;;;;;6197786;28;20563;-79
2021/10/02 06:46:20;;;;;;;7.13;3.92;;;14.00;80.10;;;;;;6198939;28;20422;-79
2021/10/02 06:49:27;;;;;;;4.80;3.30;;;14.10;80.10;;;;;;6197703;28;20532;-79
2021/10/02 06:52:30;;;;;;;6.30;3.22;;;14.20;79.90;;;;;;6199176;28;20516;-79
2021/10/02 06:55:32;;;;;;;6.07;3.63;;;14.20;79.80;;;;;;6198403;28;20493;-79
2021/10/02 06:58:34;;;;;;;3.70;3.20;;;14.20;79.90;;;;;;6197837;28;20501;-79
2021/10/02 07:01:36;;;;;;;13.20;3.72;;;14.30;79.90;;;;;;6197989;28;20895;-79
2021/10/02 07:04:39;;;;;;;3.55;2.92;;;14.40;79.90;;;;;;6198786;28;20585;-79
2021/10/02 07:07:41;;;;;;;5.68;3.13;;;14.50;79.80;;;;;;6197956;28;20780;-79
2021/10/02 07:10:43;;;;;;;4.35;2.78;;;14.80;79.10;;;;;;6197787;28;20494;-79
2021/10/02 07:13:45;;;;;;;3.85;3.30;;;15.00;78.20;;;;;;6198331;28;20494;-79
2021/10/02 07:16:47;;;;;;;4.10;2.55;;;15.30;77.90;;;;;;6198370;28;20528;-79
2021/10/02 07:19:51;;;;;;;4.35;2.72;;;15.70;77.00;;;;;;6198567;28;20438;-79
2021/10/02 07:22:53;;;;;;;3.88;2.63;;;16.00;75.80;;;;;;6197803;28;20440;-79
2021/10/02 07:25:54;;;;;;;4.88;2.25;;;16.40;74.90;;;;;;6205923;28;20469;-80
2021/10/02 07:28:56;;;;;;;3.40;2.55;;;16.80;75.00;;;;;;6225819;28;20548;-80
2021/10/02 07:31:58;;;;;;;5.90;3.30;;;17.10;72.30;;;;;;6229055;28;20457;-79
2021/10/02 07:35:02;;;;;;;5.57;2.65;;;17.40;71.90;;;;;;6229564;28;20451;-79
2021/10/02 07:38:03;;;;;;;8.45;2.75;;;17.70;70.30;;;;;;6230366;28;20608;-79
2021/10/02 07:41:06;;;;;;;5.40;2.70;;;18.10;69.60;;;;;;6231237;28;20902;-80
2021/10/02 07:44:09;;;;;;;4.90;2.38;;;18.40;68.20;;;;;;6233240;28;20516;-80
2021/10/02 07:47:13;;;;;;;3.47;2.47;;;18.70;66.00;;;;;;6232999;28;20413;-80
2021/10/02 07:50:17;;;;;;;4.00;3.08;;;19.00;65.30;;;;;;6231799;28;20427;-80
2021/10/02 07:53:19;;;;;;;2.97;2.67;;;19.40;63.90;;;;;;6230806;28;20420;-80
2021/10/02 07:56:21;;;;;;;49.22;6.30;;;19.80;62.60;;;;;;6233115;28;20444;-80
2021/10/02 07:59:24;;;;;;;52.03;8.77;;;20.10;63.20;;;;;;6234319;28;20958;-80
2021/10/02 08:02:26;;;;;;;6.28;3.20;;;20.40;66.60;;;;;;6183494;28;20432;-80
2021/10/02 08:05:29;;;;;;;12.27;4.57;;;20.90;59.80;;;;;;6183531;28;20424;-81
2021/10/02 08:08:30;;;;;;;9.10;4.78;;;21.20;60.50;;;;;;6187332;28;21012;-81
2021/10/02 08:11:32;;;;;;;7.15;3.70;;;21.40;58.50;;;;;;6187969;28;20424;-81
2021/10/02 08:14:34;;;;;;;13.02;4.68;;;21.60;57.30;;;;;;6183310;28;20510;-80
2021/10/02 08:17:38;;;;;;;7.70;3.83;;;21.90;56.70;;;;;;6179439;28;20838;-81
2021/10/02 08:20:43;;;;;;;21.55;6.80;;;22.00;56.70;;;;;;6180355;28;20532;-81
2021/10/02 08:23:45;;;;;;;25.20;5.00;;;22.20;56.00;;;;;;6179586;28;20519;-80
2021/10/02 08:26:52;;;;;;;5.07;3.75;;;22.40;54.10;;;;;;6179082;28;20786;-80
2021/10/02 08:29:55;;;;;;;4.00;3.60;;;22.50;53.90;;;;;;6176935;28;20420;-81
2021/10/02 08:32:58;;;;;;;8.25;3.78;;;22.60;53.10;;;;;;6168657;28;20436;-80
2021/10/02 08:36:01;;;;;;;12.43;4.47;;;22.70;53.80;;;;;;6176673;28;20518;-78
2021/10/02 08:39:03;;;;;;;8.23;3.30;;;22.80;53.00;;;;;;6174694;28;20556;-80
2021/10/02 08:42:05;;;;;;;7.50;3.53;;;22.90;52.10;;;;;;6175805;28;20499;-79
2021/10/02 08:45:09;;;;;;;23.00;4.03;;;23.00;50.60;;;;;;6176188;28;20420;-79
2021/10/02 08:48:14;;;;;;;14.30;4.20;;;23.00;51.50;;;;;;6177163;28;20442;-79
2021/10/02 08:51:17;;;;;;;7.97;3.13;;;23.20;50.30;;;;;;6168396;28;20420;-79
2021/10/02 08:54:19;;;;;;;4.50;2.83;;;23.20;50.10;;;;;;6169719;28;20973;-81
2021/10/02 08:57:24;;;;;;;4.05;3.03;;;23.10;49.80;;;;;;6183395;28;20546;-81
2021/10/02 09:00:26;;;;;;;3.65;2.65;;;23.00;49.80;;;;;;6199389;28;20513;-81
2021/10/02 09:03:28;;;;;;;25.48;4.38;;;23.00;49.80;;;;;;6189657;28;20442;-80
2021/10/02 09:06:31;;;;;;;14.00;3.45;;;23.00;50.10;;;;;;6203615;28;20430;-80
2021/10/02 09:09:33;;;;;;;10.82;3.55;;;23.10;50.10;;;;;;6197632;28;20936;-81
2021/10/02 09:12:36;;;;;;;58.80;9.00;;;23.10;49.20;;;;;;6179552;28;20468;-80
2021/10/02 09:15:37;;;;;;;5.40;2.73;;;23.00;49.60;;;;;;6179382;28;20437;-80
2021/10/02 09:18:39;;;;;;;5.00;2.92;;;22.90;49.30;;;;;;6177687;28;20420;-80
2021/10/02 09:21:57;;;;;;;5.32;3.05;;;22.90;50.00;;;;;;6180451;28;20444;-80
2021/10/02 09:25:01;;;;;;;14.93;4.80;;;23.10;49.60;;;;;;6179869;28;20443;-81
2021/10/02 09:28:08;;;;;;;6.13;2.38;;;23.30;49.60;;;;;;6181139;28;20443;-81
2021/10/02 09:31:10;;;;;;;31.10;5.82;;;23.40;49.00;;;;;;6176666;28;20595;-80
2021/10/02 09:34:24;;;;;;;71.88;8.60;;;23.50;48.70;;;;;;6162049;28;20418;-80
2021/10/02 09:37:29;;;;;;;22.83;3.95;;;23.60;48.40;;;;;;6160778;28;20449;-81
2021/10/02 09:40:33;;;;;;;10.75;3.60;;;23.60;48.10;;;;;;6160185;28;21062;-80
2021/10/02 09:43:35;;;;;;;5.28;3.30;;;23.70;47.40;;;;;;6182669;28;20479;-80
2021/10/02 09:46:37;;;;;;;50.92;8.10;;;23.60;47.90;;;;;;6180197;28;20499;-80
2021/10/02 09:49:42;;;;;;;12.73;3.53;;;23.40;49.50;;;;;;6179115;28;20464;-80
2021/10/02 09:52:47;;;;;;;7.00;3.10;;;23.50;48.30;;;;;;6181268;28;20543;-80
2021/10/02 09:55:50;;;;;;;7.05;3.17;;;23.60;47.40;;;;;;6180052;28;20452;-80
2021/10/02 09:58:53;;;;;;;3.55;2.47;;;23.60;47.40;;;;;;6177817;28;20438;-80
2021/10/02 10:02:11;;;;;;;55.72;8.43;;;24.00;47.10;;;;;;6186654;28;20419;-80
2021/10/02 10:05:15;;;;;;;4.82;2.63;;;24.10;46.60;;;;;;6178550;28;20502;-80
2021/10/02 10:08:26;;;;;;;15.03;3.23;;;24.30;45.30;;;;;;6179947;28;20440;-80
2021/10/02 10:11:41;;;;;;;4.28;2.33;;;24.40;45.30;;;;;;6180103;28;20499;-81
2021/10/02 10:14:43;;;;;;;13.03;3.20;;;24.30;44.90;;;;;;6178959;28;20493;-81
2021/10/02 10:17:49;;;;;;;5.85;2.30;;;24.50;45.80;;;;;;6179632;28;20471;-81
2021/10/02 10:20:53;;;;;;;7.90;2.42;;;24.80;44.70;;;;;;6179828;28;21088;-81
2021/10/02 10:24:05;;;;;;;11.38;2.63;;;24.90;43.40;;;;;;6179534;28;20598;-80
2021/10/02 10:27:07;;;;;;;8.63;1.80;;;25.10;41.90;;;;;;6181285;28;20420;-80
2021/10/02 10:30:12;;;;;;;9.32;2.50;;;25.30;40.90;;;;;;6180950;28;20497;-81
2021/10/02 10:33:15;;;;;;;5.00;2.45;;;25.60;40.90;;;;;;6196533;28;20415;-80
2021/10/02 10:36:20;;;;;;;14.05;3.33;;;25.80;40.20;;;;;;6211894;28;20495;-81
2021/10/02 10:39:23;;;;;;;5.53;2.45;;;26.00;40.20;;;;;;6209152;28;20450;-81
2021/10/02 10:42:28;;;;;;;2.05;1.63;;;26.20;39.60;;;;;;6214752;28;20445;-82
2021/10/02 10:45:30;;;;;;;5.53;2.20;;;26.00;40.30;;;;;;6220352;28;20996;-81
2021/10/02 10:48:32;;;;;;;3.13;2.10;;;26.00;41.00;;;;;;6205589;28;20438;-81
2021/10/02 10:51:34;;;;;;;63.80;7.50;;;26.00;40.80;;;;;;6190650;28;20499;-81
2021/10/02 10:54:42;;;;;;;50.25;6.13;;;25.90;40.00;;;;;;6187241;28;20424;-80
2021/10/02 10:57:46;;;;;;;3.72;2.22;;;26.10;40.30;;;;;;6201904;28;20416;-81
2021/10/02 11:00:48;;;;;;;4.20;1.92;;;26.10;39.80;;;;;;6196129;28;20522;-80
2021/10/02 11:03:50;;;;;;;8.07;2.70;;;26.30;39.80;;;;;;6195847;28;20795;-82
2021/10/02 11:06:53;;;;;;;3.10;2.20;;;26.60;40.00;;;;;;6200157;28;20422;-81
2021/10/02 11:09:56;;;;;;;62.87;7.13;;;26.80;38.60;;;;;;6203257;28;20418;-80
2021/10/02 11:12:58;;;;;;;51.80;7.18;;;27.00;38.80;;;;;;6204827;28;20434;-82
2021/10/02 11:16:31;;;;;;;5.53;2.10;;;27.30;38.00;;;;;;6207523;28;20489;-81
2021/10/02 11:19:36;;;;;;;7.30;2.20;;;27.30;37.40;;;;;;6210890;28;20481;-81
2021/10/02 11:23:24;;;;;;;2.97;2.17;;;27.10;38.00;;;;;;6204903;28;20502;-82
2021/10/02 11:26:28;;;;;;;2.90;2.42;;;26.70;38.70;;;;;;6187079;28;21307;-82
2021/10/02 11:29:32;;;;;;;5.22;2.03;;;26.70;38.20;;;;;;6206055;28;20494;-81
2021/10/02 11:32:37;;;;;;;6.20;2.90;;;26.60;38.30;;;;;;6208552;28;20525;-80
2021/10/02 11:35:39;;;;;;;3.88;2.25;;;26.60;38.90;;;;;;6206496;28;20425;-80
2021/10/02 11:38:41;;;;;;;2.70;2.10;;;26.70;39.30;;;;;;6204691;28;20442;-80
2021/10/02 11:41:46;;;;;;;5.13;2.50;;;27.00;39.20;;;;;;6205895;28;20445;-80
2021/10/02 11:44:52;;;;;;;3.20;2.10;;;27.20;38.90;;;;;;6204962;28;20434;-82
2021/10/02 11:48:11;;;;;;;2.58;2.08;;;27.40;36.90;;;;;;6208767;28;20445;-81
2021/10/02 11:51:16;;;;;;;3.88;2.30;;;27.10;36.70;;;;;;6207405;28;20421;-82
2021/10/02 11:54:19;;;;;;;5.55;2.53;;;26.80;36.20;;;;;;6202735;28;20945;-81
2021/10/02 11:57:21;;;;;;;6.07;2.30;;;26.40;37.80;;;;;;6205838;28;20445;-82
2021/10/02 12:00:23;;;;;;;3.07;2.13;;;26.20;37.90;;;;;;6204962;28;20529;-82
2021/10/02 12:03:27;;;;;;;3.13;1.90;;;26.00;39.00;;;;;;6200379;28;20419;-82
2021/10/02 12:06:31;;;;;;;2.47;1.85;;;26.00;39.00;;;;;;6208507;28;20497;-82
2021/10/02 12:09:33;;;;;;;3.47;2.42;;;26.30;39.30;;;;;;6207462;28;20423;-81
2021/10/02 12:12:34;;;;;;;5.30;2.00;;;26.30;38.00;;;;;;6206873;28;20434;-83
2021/10/02 12:15:36;;;;;;;2.55;2.20;;;26.10;37.60;;;;;;6205828;28;20450;-82
2021/10/02 12:18:51;;;;;;;6.18;2.28;;;25.90;38.50;;;;;;6204561;28;20422;-82
2021/10/02 12:21:55;;;;;;;3.03;1.90;;;25.80;38.10;;;;;;6204513;28;20454;-81
2021/10/02 12:24:57;;;;;;;2.92;2.05;;;25.90;39.00;;;;;;6205755;28;20462;-82
2021/10/02 12:27:59;;;;;;;2.47;2.08;;;26.30;38.50;;;;;;6207296;28;20445;-81
2021/10/02 12:31:01;;;;;;;2.42;2.00;;;26.70;37.20;;;;;;6208665;28;20423;-82
2021/10/02 12:34:12;;;;;;;4.38;1.83;;;26.90;37.90;;;;;;6189518;28;21012;-81
2021/10/02 12:37:17;;;;;;;3.13;2.00;;;27.20;37.70;;;;;;6182692;28;20448;-82
2021/10/02 12:40:19;;;;;;;3.20;2.50;;;27.50;36.80;;;;;;6184026;28;20579;-82
2021/10/02 12:43:23;;;;;;;3.08;1.83;;;27.90;34.10;;;;;;6181770;28;20427;-83
2021/10/02 12:46:28;;;;;;;2.10;1.90;;;28.30;34.50;;;;;;6181928;28;20927;-83
2021/10/02 12:49:34;;;;;;;2.38;2.13;;;28.60;34.10;;;;;;6182129;28;20938;-82
2021/10/02 12:52:37;;;;;;;5.00;2.15;;;28.80;33.80;;;;;;6182171;28;20439;-82
2021/10/02 12:55:39;;;;;;;8.85;2.78;;;28.90;34.20;;;;;;6189056;28;20503;-84
2021/10/02 12:58:41;;;;;;;6.97;2.65;;;29.00;33.60;;;;;;6183243;28;20447;-82
2021/10/02 13:01:47;;;;;;;5.38;2.08;;;29.00;35.10;;;;;;6193313;28;20416;-82
2021/10/02 13:04:50;;;;;;;2.50;1.87;;;29.00;35.20;;;;;;6202333;28;20497;-82
2021/10/02 13:07:55;;;;;;;4.97;1.95;;;28.90;34.20;;;;;;6208647;28;20509;-82
2021/10/02 13:10:57;;;;;;;5.32;1.90;;;29.00;34.00;;;;;;6209152;28;20415;-83
2021/10/02 13:13:59;;;;;;;4.13;2.13;;;29.00;35.60;;;;;;6203548;28;20461;-82
2021/10/02 13:17:01;;;;;;;4.63;1.90;;;28.90;35.60;;;;;;6202070;28;20526;-83
2021/10/02 13:20:22;;;;;;;4.63;2.60;;;28.90;35.10;;;;;;6202075;28;20524;-83
2021/10/02 13:23:31;;;;;;;3.63;2.00;;;29.00;35.10;;;;;;6201911;28;20892;-82
2021/10/02 13:26:33;;;;;;;7.20;2.40;;;29.00;34.90;;;;;;6200517;28;20485;-82
2021/10/02 13:29:35;;;;;;;2.88;2.15;;;29.00;34.90;;;;;;6205976;28;20519;-82
2021/10/02 13:32:37;;;;;;;2.80;2.00;;;28.90;34.50;;;;;;6190264;28;20434;-82
2021/10/02 13:35:47;;;;;;;3.70;2.50;;;28.90;34.50;;;;;;6202104;28;20851;-81
2021/10/02 13:38:49;;;;;;;2.42;2.03;;;28.90;34.40;;;;;;6200980;28;20931;-82
2021/10/02 13:41:53;;;;;;;3.20;2.30;;;28.90;34.10;;;;;;6205001;28;20498;-82
2021/10/02 13:44:56;;;;;;;4.07;2.10;;;28.80;35.00;;;;;;6225967;28;20509;-83
2021/10/02 13:48:01;;;;;;;7.72;3.10;;;28.80;35.10;;;;;;6226984;28;20453;-82
2021/10/02 13:51:04;;;;;;;1.85;1.75;;;28.70;35.10;;;;;;6202114;28;20520;-82
2021/10/02 13:54:07;;;;;;;5.95;2.47;;;28.80;35.60;;;;;;6190953;28;20893;-82
2021/10/02 13:57:09;;;;;;;3.05;2.72;;;28.90;35.40;;;;;;6192872;28;20510;-81
2021/10/02 14:00:12;;;;;;;4.63;2.63;;;28.90;34.80;;;;;;6184936;28;20474;-82
2021/10/02 14:03:13;;;;;;;4.90;2.10;;;29.00;34.80;;;;;;6196554;28;20502;-83
2021/10/02 14:06:17;;;;;;;5.25;2.38;;;29.10;34.60;;;;;;6204681;28;20473;-82
2021/10/02 14:09:19;;;;;;;3.60;2.17;;;29.20;35.00;;;;;;6204043;28;20919;-82
2021/10/02 14:12:20;;;;;;;5.03;3.00;;;29.30;34.00;;;;;;6206211;28;20492;-82
2021/10/02 14:15:22;;;;;;;3.70;2.50;;;29.20;34.50;;;;;;6203408;28;20411;-82
2021/10/02 14:18:25;;;;;;;3.83;2.38;;;29.00;36.30;;;;;;6204459;28;20500;-82
2021/10/02 14:21:28;;;;;;;3.88;2.10;;;29.10;35.30;;;;;;6203489;28;20421;-82
2021/10/02 14:24:30;;;;;;;4.28;2.38;;;29.10;35.30;;;;;;6204393;28;20542;-82
2021/10/02 14:27:32;;;;;;;3.83;2.05;;;29.10;36.50;;;;;;6204545;28;20410;-82
2021/10/02 14:30:34;;;;;;;3.38;2.53;;;29.10;35.50;;;;;;6204210;28;20411;-83
2021/10/02 14:33:36;;;;;;;8.37;3.03;;;29.10;35.90;;;;;;6196175;28;20423;-83
2021/10/02 14:36:39;;;;;;;3.47;2.93;;;29.00;34.90;;;;;;6203927;28;20516;-82
2021/10/02 14:39:42;;;;;;;3.40;2.30;;;28.80;35.60;;;;;;6202468;28;20501;-83
2021/10/02 14:42:46;;;;;;;3.22;2.65;;;28.60;36.10;;;;;;6202830;28;20934;-82
2021/10/02 14:45:48;;;;;;;3.95;2.47;;;28.60;37.10;;;;;;6201989;28;20427;-81
2021/10/02 14:48:50;;;;;;;4.35;2.65;;;28.60;36.80;;;;;;6200943;28;20441;-82
2021/10/02 14:51:58;;;;;;;2.95;2.17;;;28.60;36.60;;;;;;6201255;28;20517;-80
2021/10/02 14:55:02;;;;;;;3.85;2.83;;;28.70;36.70;;;;;;6200920;28;20477;-82
2021/10/02 14:58:05;;;;;;;2.85;2.47;;;28.60;38.20;;;;;;6189236;28;20558;-82
2021/10/02 15:01:12;;;;;;;4.13;2.50;;;28.60;36.00;;;;;;6196984;28;20410;-82
2021/10/02 15:04:16;;;;;;;4.28;2.28;;;28.50;37.80;;;;;;6194669;28;20434;-82
2021/10/02 15:07:22;;;;;;;3.13;2.63;;;28.40;37.90;;;;;;6200920;28;20428;-82
2021/10/02 15:10:24;;;;;;;3.30;2.42;;;28.20;39.40;;;;;;6200502;28;20454;-82
2021/10/02 15:13:27;;;;;;;4.75;2.45;;;28.00;44.00;;;;;;6200963;28;20415;-82
2021/10/02 15:16:29;;;;;;;4.07;2.60;;;27.70;43.90;;;;;;6201908;28;20493;-83
2021/10/02 15:19:31;;;;;;;6.80;3.25;;;27.40;45.50;;;;;;6199523;28;20501;-82
2021/10/02 15:22:37;;;;;;;6.05;2.90;;;27.00;47.10;;;;;;6199904;28;20492;-82
2021/10/02 15:25:40;;;;;;;7.45;3.08;;;26.60;49.20;;;;;;6201114;28;20916;-83
2021/10/02 15:28:44;;;;;;;7.70;3.40;;;26.20;51.20;;;;;;6200907;28;20532;-84
2021/10/02 15:31:46;;;;;;;5.18;3.25;;;25.80;51.00;;;;;;6197216;28;20420;-83
2021/10/02 15:34:50;;;;;;;6.60;2.90;;;25.50;51.20;;;;;;6197984;28;20508;-83
2021/10/02 15:37:53;;;;;;;5.20;3.20;;;25.20;53.00;;;;;;6201907;28;20462;-83
2021/10/02 15:40:57;;;;;;;5.18;3.40;;;25.00;54.50;;;;;;6201034;28;20517;-83
2021/10/02 15:44:00;;;;;;;5.30;2.97;;;24.90;55.20;;;;;;6201614;28;20521;-83
2021/10/02 15:47:04;;;;;;;4.03;2.95;;;24.70;56.60;;;;;;6201417;28;20411;-83
2021/10/02 15:50:08;;;;;;;5.38;2.65;;;24.60;57.20;;;;;;6201462;28;20442;-83
2021/10/02 15:53:11;;;;;;;5.43;2.88;;;24.50;55.30;;;;;;6201760;28;20418;-83
2021/10/02 15:56:20;;;;;;;5.43;3.05;;;24.50;59.10;;;;;;6204777;28;20497;-83
2021/10/02 15:59:24;;;;;;;4.45;3.60;;;24.40;59.90;;;;;;6198304;28;20500;-83
2021/10/02 16:02:41;;;;;;;4.72;2.97;;;24.20;60.60;;;;;;6198760;28;20567;-83
2021/10/02 16:05:49;;;;;;;9.02;4.10;;;24.10;60.30;;;;;;6206932;28;20414;-83
2021/10/02 16:08:55;;;;;;;6.15;3.85;;;24.00;60.70;;;;;;6205413;28;20524;-83
2021/10/02 16:11:59;;;;;;;5.38;3.97;;;23.90;61.10;;;;;;6207299;28;20800;-83
2021/10/02 16:15:03;;;;;;;7.63;3.88;;;23.80;62.00;;;;;;6206547;28;20501;-83
2021/10/02 16:18:07;;;;;;;4.85;3.92;;;23.70;62.30;;;;;;6205598;28;20943;-82
2021/10/02 16:21:10;;;;;;;9.00;4.10;;;23.50;63.70;;;;;;6206889;28;20410;-83
2021/10/02 16:24:13;;;;;;;5.95;3.80;;;23.20;64.10;;;;;;6206327;28;20427;-82
2021/10/02 16:27:15;;;;;;;40.90;24.47;;;23.00;65.50;;;;;;6207441;28;20504;-81
2021/10/02 16:30:19;;;;;;;112.72;55.20;;;22.80;67.40;;;;;;6205461;28;20515;-83
2021/10/02 16:33:21;;;;;;;238.33;185.57;;;22.60;67.00;;;;;;6198249;28;20469;-81
2021/10/02 16:36:24;;;;;;;281.02;117.63;;;22.40;68.50;;;;;;6206679;28;20438;-82
2021/10/02 16:39:27;;;;;;;85.80;34.27;;;22.20;69.10;;;;;;6207775;28;20799;-82
2021/10/02 16:42:29;;;;;;;32.08;14.38;;;22.00;70.30;;;;;;6208568;28;20429;-82